sensor_id;sensor_type;location;lat;lon;timestamp;P1;durP1;ratioP1;P2;durP2;ratioP2
9392;SDS011;4736;52.508;13.422;2022-07-29T00:02:22;3.90;;;3.70;;
9392;SDS011;4736;52.508;13.422;2022-07-29T00:05:25;7.20;;;3.77;;
9392;SDS011;4736;52.508;13.422;2022-07-29T00:08:28;6.07;;;3.60;;
9392;SDS011;4736;52.508;13.422;2022-07-29T00:11:32;6.17;;;4.20;;
9392;SDS011;4736;52.508;13.422;2022-07-29T00:14:35;5.47;;;4.30;;
9392;SDS011;4736;52.508;13.422;2022-07-29T00:17:38;5.37;;;4.33;;
9392;SDS011;4736;52.508;13.422;2022-07-29T00:20:41;4.67;;;4.27;;
9392;SDS011;4736;52.508;13.422;2022-07-29T00:23:44;5.20;;;4.70;;
9392;SDS011;4736;52.508;13.422;2022-07-29T00:26:48;6.50;;;4.60;;
9392;SDS011;4736;52.508;13.422;2022-07-29T00:29:51;6.73;;;4.77;;
9392;SDS011;4736;52.508;13.422;2022-07-29T00:32:54;4.87;;;4.63;;
9392;SDS011;4736;52.508;13.422;2022-07-29T00:35:57;4.53;;;4.33;;
9392;SDS011;4736;52.508;13.422;2022-07-29T00:38:59;6.00;;;4.73;;
9392;SDS011;4736;52.508;13.422;2022-07-29T00:42:04;5.10;;;4.63;;
9392;SDS011;4736;52.508;13.422;2022-07-29T00:45:07;4.77;;;4.37;;
9392;SDS011;4736;52.508;13.422;2022-07-29T00:48:11;6.07;;;4.50;;
9392;SDS011;4736;52.508;13.422;2022-07-29T00:51:14;5.13;;;4.83;;
9392;SDS011;4736;52.508;13.422;2022-07-29T00:54:17;4.90;;;4.70;;
9392;SDS011;4736;52.508;13.422;2022-07-29T00:57:22;5.40;;;5.10;;
9392;SDS011;4736;52.508;13.422;2022-07-29T01:00:25;7.00;;;5.07;;
9392;SDS011;4736;52.508;13.422;2022-07-29T01:03:30;5.70;;;5.10;;
9392;SDS011;4736;52.508;13.422;2022-07-29T01:06:33;5.10;;;4.70;;
9392;SDS011;4736;52.508;13.422;2022-07-29T01:09:36;11.03;;;4.97;;
9392;SDS011;4736;52.508;13.422;2022-07-29T01:12:48;4.57;;;4.30;;
9392;SDS011;4736;52.508;13.422;2022-07-29T01:15:54;5.53;;;4.10;;
9392;SDS011;4736;52.508;13.422;2022-07-29T01:19:03;5.13;;;4.80;;
9392;SDS011;4736;52.508;13.422;2022-07-29T01:22:19;6.80;;;4.80;;
9392;SDS011;4736;52.508;13.422;2022-07-29T01:25:43;5.27;;;4.97;;
9392;SDS011;4736;52.508;13.422;2022-07-29T01:29:00;5.13;;;4.73;;
9392;SDS011;4736;52.508;13.422;2022-07-29T01:32:09;5.30;;;4.80;;
9392;SDS011;4736;52.508;13.422;2022-07-29T01:35:30;5.00;;;4.73;;
9392;SDS011;4736;52.508;13.422;2022-07-29T01:38:38;5.50;;;4.27;;
9392;SDS011;4736;52.508;13.422;2022-07-29T01:41:45;5.23;;;4.60;;
9392;SDS011;4736;52.508;13.422;2022-07-29T01:44:55;5.10;;;4.70;;
9392;SDS011;4736;52.508;13.422;2022-07-29T01:48:03;5.10;;;4.80;;
9392;SDS011;4736;52.508;13.422;2022-07-29T01:51:12;4.80;;;4.40;;
9392;SDS011;4736;52.508;13.422;2022-07-29T01:54:19;4.63;;;4.43;;
9392;SDS011;4736;52.508;13.422;2022-07-29T01:57:27;6.13;;;4.90;;
9392;SDS011;4736;52.508;13.422;2022-07-29T02:00:33;5.03;;;4.60;;
9392;SDS011;4736;52.508;13.422;2022-07-29T02:03:38;4.90;;;4.47;;
9392;SDS011;4736;52.508;13.422;2022-07-29T02:06:44;7.27;;;4.57;;
9392;SDS011;4736;52.508;13.422;2022-07-29T02:09:50;6.20;;;4.80;;
9392;SDS011;4736;52.508;13.422;2022-07-29T02:12:55;5.67;;;4.63;;
9392;SDS011;4736;52.508;13.422;2022-07-29T02:16:01;6.33;;;4.60;;
9392;SDS011;4736;52.508;13.422;2022-07-29T02:19:07;4.53;;;4.20;;
9392;SDS011;4736;52.508;13.422;2022-07-29T02:22:12;4.87;;;4.57;;
9392;SDS011;4736;52.508;13.422;2022-07-29T02:25:16;4.57;;;4.27;;
9392;SDS011;4736;52.508;13.422;2022-07-29T02:28:20;4.60;;;3.80;;
9392;SDS011;4736;52.508;13.422;2022-07-29T02:31:28;4.50;;;4.20;;
9392;SDS011;4736;52.508;13.422;2022-07-29T02:34:34;4.63;;;4.37;;
9392;SDS011;4736;52.508;13.422;2022-07-29T02:37:40;4.90;;;4.60;;
9392;SDS011;4736;52.508;13.422;2022-07-29T02:40:46;5.80;;;4.90;;
9392;SDS011;4736;52.508;13.422;2022-07-29T02:43:52;9.37;;;4.60;;
9392;SDS011;4736;52.508;13.422;2022-07-29T02:47:02;5.03;;;4.63;;
9392;SDS011;4736;52.508;13.422;2022-07-29T02:50:11;4.63;;;4.23;;
9392;SDS011;4736;52.508;13.422;2022-07-29T02:53:17;5.13;;;4.67;;
9392;SDS011;4736;52.508;13.422;2022-07-29T02:56:23;5.60;;;4.90;;
9392;SDS011;4736;52.508;13.422;2022-07-29T02:59:29;5.23;;;4.77;;
9392;SDS011;4736;52.508;13.422;2022-07-29T03:02:38;5.30;;;4.53;;
9392;SDS011;4736;52.508;13.422;2022-07-29T03:05:44;6.27;;;4.60;;
9392;SDS011;4736;52.508;13.422;2022-07-29T03:08:47;6.33;;;4.60;;
9392;SDS011;4736;52.508;13.422;2022-07-29T03:11:51;4.83;;;4.50;;
9392;SDS011;4736;52.508;13.422;2022-07-29T03:14:56;4.87;;;4.33;;
9392;SDS011;4736;52.508;13.422;2022-07-29T03:18:01;4.17;;;3.93;;
9392;SDS011;4736;52.508;13.422;2022-07-29T03:21:04;5.07;;;4.60;;
9392;SDS011;4736;52.508;13.422;2022-07-29T03:24:12;5.10;;;4.67;;
9392;SDS011;4736;52.508;13.422;2022-07-29T03:27:27;6.17;;;4.47;;
9392;SDS011;4736;52.508;13.422;2022-07-29T03:30:30;4.87;;;4.33;;
9392;SDS011;4736;52.508;13.422;2022-07-29T03:33:34;4.93;;;4.53;;
9392;SDS011;4736;52.508;13.422;2022-07-29T03:36:37;5.83;;;4.60;;
9392;SDS011;4736;52.508;13.422;2022-07-29T03:39:42;4.63;;;4.27;;
9392;SDS011;4736;52.508;13.422;2022-07-29T03:42:46;4.57;;;4.27;;
9392;SDS011;4736;52.508;13.422;2022-07-29T03:45:51;4.67;;;4.13;;
9392;SDS011;4736;52.508;13.422;2022-07-29T03:48:58;4.27;;;3.93;;
9392;SDS011;4736;52.508;13.422;2022-07-29T03:52:03;4.77;;;4.47;;
9392;SDS011;4736;52.508;13.422;2022-07-29T03:55:07;5.10;;;4.63;;
9392;SDS011;4736;52.508;13.422;2022-07-29T03:58:11;5.13;;;4.67;;
9392;SDS011;4736;52.508;13.422;2022-07-29T04:01:15;6.90;;;4.60;;
9392;SDS011;4736;52.508;13.422;2022-07-29T04:04:21;4.70;;;4.30;;
9392;SDS011;4736;52.508;13.422;2022-07-29T04:07:27;4.53;;;4.20;;
9392;SDS011;4736;52.508;13.422;2022-07-29T04:10:31;4.77;;;4.40;;
9392;SDS011;4736;52.508;13.422;2022-07-29T04:13:36;4.90;;;4.50;;
9392;SDS011;4736;52.508;13.422;2022-07-29T04:16:39;4.83;;;4.47;;
9392;SDS011;4736;52.508;13.422;2022-07-29T04:19:43;6.30;;;4.60;;
9392;SDS011;4736;52.508;13.422;2022-07-29T04:22:46;5.13;;;4.63;;
9392;SDS011;4736;52.508;13.422;2022-07-29T04:25:49;4.50;;;4.20;;
9392;SDS011;4736;52.508;13.422;2022-07-29T04:28:52;4.40;;;4.00;;
9392;SDS011;4736;52.508;13.422;2022-07-29T04:31:55;5.27;;;4.20;;
9392;SDS011;4736;52.508;13.422;2022-07-29T04:34:59;5.80;;;4.57;;
9392;SDS011;4736;52.508;13.422;2022-07-29T04:38:02;4.43;;;4.10;;
9392;SDS011;4736;52.508;13.422;2022-07-29T04:41:06;4.37;;;4.10;;
9392;SDS011;4736;52.508;13.422;2022-07-29T04:44:11;6.80;;;4.73;;
9392;SDS011;4736;52.508;13.422;2022-07-29T04:47:14;4.43;;;4.13;;
9392;SDS011;4736;52.508;13.422;2022-07-29T04:50:19;8.90;;;4.57;;
9392;SDS011;4736;52.508;13.422;2022-07-29T04:53:22;6.23;;;4.23;;
9392;SDS011;4736;52.508;13.422;2022-07-29T04:56:24;4.70;;;4.23;;
9392;SDS011;4736;52.508;13.422;2022-07-29T04:59:28;4.70;;;4.30;;
9392;SDS011;4736;52.508;13.422;2022-07-29T05:02:31;4.27;;;3.87;;
9392;SDS011;4736;52.508;13.422;2022-07-29T05:05:35;8.93;;;4.10;;
9392;SDS011;4736;52.508;13.422;2022-07-29T05:08:38;4.03;;;3.63;;
9392;SDS011;4736;52.508;13.422;2022-07-29T05:11:42;4.93;;;3.90;;
9392;SDS011;4736;52.508;13.422;2022-07-29T05:14:45;8.77;;;3.60;;
9392;SDS011;4736;52.508;13.422;2022-07-29T05:17:48;5.80;;;4.20;;
9392;SDS011;4736;52.508;13.422;2022-07-29T05:20:52;6.83;;;4.00;;
9392;SDS011;4736;52.508;13.422;2022-07-29T05:23:55;4.23;;;3.93;;
9392;SDS011;4736;52.508;13.422;2022-07-29T05:26:58;5.60;;;4.10;;
9392;SDS011;4736;52.508;13.422;2022-07-29T05:30:01;8.83;;;4.30;;
9392;SDS011;4736;52.508;13.422;2022-07-29T05:33:04;4.30;;;3.90;;
9392;SDS011;4736;52.508;13.422;2022-07-29T05:36:08;4.33;;;3.93;;
9392;SDS011;4736;52.508;13.422;2022-07-29T05:39:11;4.63;;;4.03;;
9392;SDS011;4736;52.508;13.422;2022-07-29T05:42:15;7.77;;;4.20;;
9392;SDS011;4736;52.508;13.422;2022-07-29T05:45:18;5.10;;;3.93;;
9392;SDS011;4736;52.508;13.422;2022-07-29T05:48:21;7.57;;;3.93;;
9392;SDS011;4736;52.508;13.422;2022-07-29T05:51:25;4.20;;;3.90;;
9392;SDS011;4736;52.508;13.422;2022-07-29T05:54:28;4.07;;;3.83;;
9392;SDS011;4736;52.508;13.422;2022-07-29T05:57:31;6.77;;;4.37;;
9392;SDS011;4736;52.508;13.422;2022-07-29T06:00:34;6.43;;;4.33;;
9392;SDS011;4736;52.508;13.422;2022-07-29T06:03:38;4.50;;;3.80;;
9392;SDS011;4736;52.508;13.422;2022-07-29T06:06:43;6.50;;;3.80;;
9392;SDS011;4736;52.508;13.422;2022-07-29T06:09:46;6.23;;;4.07;;
9392;SDS011;4736;52.508;13.422;2022-07-29T06:12:49;6.03;;;4.43;;
9392;SDS011;4736;52.508;13.422;2022-07-29T06:15:52;11.63;;;4.03;;
9392;SDS011;4736;52.508;13.422;2022-07-29T06:18:55;5.10;;;3.87;;
9392;SDS011;4736;52.508;13.422;2022-07-29T06:22:00;6.17;;;4.23;;
9392;SDS011;4736;52.508;13.422;2022-07-29T06:25:03;4.00;;;3.60;;
9392;SDS011;4736;52.508;13.422;2022-07-29T06:28:06;7.83;;;3.97;;
9392;SDS011;4736;52.508;13.422;2022-07-29T06:31:09;7.57;;;4.20;;
9392;SDS011;4736;52.508;13.422;2022-07-29T06:34:12;5.47;;;3.80;;
9392;SDS011;4736;52.508;13.422;2022-07-29T06:37:17;5.40;;;3.80;;
9392;SDS011;4736;52.508;13.422;2022-07-29T06:40:20;3.77;;;3.47;;
9392;SDS011;4736;52.508;13.422;2022-07-29T06:43:52;8.33;;;4.20;;
9392;SDS011;4736;52.508;13.422;2022-07-29T06:46:57;4.57;;;3.80;;
9392;SDS011;4736;52.508;13.422;2022-07-29T06:50:00;4.33;;;3.53;;
9392;SDS011;4736;52.508;13.422;2022-07-29T06:53:09;5.83;;;3.77;;
9392;SDS011;4736;52.508;13.422;2022-07-29T06:56:12;5.33;;;3.97;;
9392;SDS011;4736;52.508;13.422;2022-07-29T06:59:15;6.73;;;3.60;;
9392;SDS011;4736;52.508;13.422;2022-07-29T07:02:18;3.83;;;3.53;;
9392;SDS011;4736;52.508;13.422;2022-07-29T07:05:21;5.10;;;3.23;;
9392;SDS011;4736;52.508;13.422;2022-07-29T07:08:26;3.40;;;3.13;;
9392;SDS011;4736;52.508;13.422;2022-07-29T07:11:29;5.00;;;3.30;;
9392;SDS011;4736;52.508;13.422;2022-07-29T07:14:32;3.77;;;3.10;;
9392;SDS011;4736;52.508;13.422;2022-07-29T07:17:35;4.47;;;3.53;;
9392;SDS011;4736;52.508;13.422;2022-07-29T07:20:38;11.17;;;3.63;;
9392;SDS011;4736;52.508;13.422;2022-07-29T07:23:43;3.93;;;3.60;;
9392;SDS011;4736;52.508;13.422;2022-07-29T07:26:46;4.13;;;3.60;;
9392;SDS011;4736;52.508;13.422;2022-07-29T07:29:49;3.30;;;3.07;;
9392;SDS011;4736;52.508;13.422;2022-07-29T07:32:51;7.17;;;3.73;;
9392;SDS011;4736;52.508;13.422;2022-07-29T07:35:54;7.27;;;3.47;;
9392;SDS011;4736;52.508;13.422;2022-07-29T07:38:59;3.47;;;3.17;;
9392;SDS011;4736;52.508;13.422;2022-07-29T07:42:02;3.83;;;3.33;;
9392;SDS011;4736;52.508;13.422;2022-07-29T07:45:05;3.47;;;3.20;;
9392;SDS011;4736;52.508;13.422;2022-07-29T07:48:16;7.63;;;3.63;;
9392;SDS011;4736;52.508;13.422;2022-07-29T07:51:19;4.90;;;3.10;;
9392;SDS011;4736;52.508;13.422;2022-07-29T07:54:24;5.40;;;3.70;;
9392;SDS011;4736;52.508;13.422;2022-07-29T07:57:27;3.70;;;3.40;;
9392;SDS011;4736;52.508;13.422;2022-07-29T08:00:30;3.90;;;3.50;;
9392;SDS011;4736;52.508;13.422;2022-07-29T08:03:33;3.70;;;3.40;;
9392;SDS011;4736;52.508;13.422;2022-07-29T08:06:36;6.07;;;3.17;;
9392;SDS011;4736;52.508;13.422;2022-07-29T08:09:41;8.90;;;3.27;;
9392;SDS011;4736;52.508;13.422;2022-07-29T08:12:44;3.67;;;3.37;;
9392;SDS011;4736;52.508;13.422;2022-07-29T08:15:46;3.30;;;3.10;;
9392;SDS011;4736;52.508;13.422;2022-07-29T08:18:59;4.90;;;3.10;;
9392;SDS011;4736;52.508;13.422;2022-07-29T08:22:01;5.03;;;3.20;;
9392;SDS011;4736;52.508;13.422;2022-07-29T08:25:06;8.77;;;3.90;;
9392;SDS011;4736;52.508;13.422;2022-07-29T08:28:09;2.63;;;2.43;;
9392;SDS011;4736;52.508;13.422;2022-07-29T08:31:12;5.30;;;3.10;;
9392;SDS011;4736;52.508;13.422;2022-07-29T08:34:15;3.07;;;2.87;;
9392;SDS011;4736;52.508;13.422;2022-07-29T08:37:25;7.20;;;3.70;;
9392;SDS011;4736;52.508;13.422;2022-07-29T08:40:30;3.30;;;3.00;;
9392;SDS011;4736;52.508;13.422;2022-07-29T08:43:33;3.17;;;2.90;;
9392;SDS011;4736;52.508;13.422;2022-07-29T08:46:38;5.77;;;3.03;;
9392;SDS011;4736;52.508;13.422;2022-07-29T08:49:41;3.70;;;3.40;;
9392;SDS011;4736;52.508;13.422;2022-07-29T08:52:46;3.93;;;3.20;;
9392;SDS011;4736;52.508;13.422;2022-07-29T08:55:52;3.00;;;2.80;;
9392;SDS011;4736;52.508;13.422;2022-07-29T08:58:56;3.73;;;3.43;;
9392;SDS011;4736;52.508;13.422;2022-07-29T09:02:05;4.23;;;3.00;;
9392;SDS011;4736;52.508;13.422;2022-07-29T09:05:18;4.03;;;3.20;;
9392;SDS011;4736;52.508;13.422;2022-07-29T09:08:21;3.40;;;3.00;;
9392;SDS011;4736;52.508;13.422;2022-07-29T09:11:26;4.40;;;2.80;;
9392;SDS011;4736;52.508;13.422;2022-07-29T09:14:29;5.07;;;2.90;;
9392;SDS011;4736;52.508;13.422;2022-07-29T09:17:39;5.83;;;3.07;;
9392;SDS011;4736;52.508;13.422;2022-07-29T09:20:44;3.33;;;3.13;;
9392;SDS011;4736;52.508;13.422;2022-07-29T09:24:12;7.43;;;3.20;;
9392;SDS011;4736;52.508;13.422;2022-07-29T09:27:22;6.13;;;2.90;;
9392;SDS011;4736;52.508;13.422;2022-07-29T09:30:27;5.20;;;3.07;;
9392;SDS011;4736;52.508;13.422;2022-07-29T09:33:32;4.50;;;3.03;;
9392;SDS011;4736;52.508;13.422;2022-07-29T09:36:40;5.70;;;3.40;;
9392;SDS011;4736;52.508;13.422;2022-07-29T09:39:44;9.83;;;3.10;;
9392;SDS011;4736;52.508;13.422;2022-07-29T09:42:49;3.50;;;3.30;;
9392;SDS011;4736;52.508;13.422;2022-07-29T09:45:54;7.33;;;3.13;;
9392;SDS011;4736;52.508;13.422;2022-07-29T09:49:06;3.57;;;3.13;;
9392;SDS011;4736;52.508;13.422;2022-07-29T09:52:10;7.93;;;3.13;;
9392;SDS011;4736;52.508;13.422;2022-07-29T09:55:14;3.13;;;2.83;;
9392;SDS011;4736;52.508;13.422;2022-07-29T09:58:20;3.47;;;3.13;;
9392;SDS011;4736;52.508;13.422;2022-07-29T10:01:27;5.97;;;3.07;;
9392;SDS011;4736;52.508;13.422;2022-07-29T10:04:36;3.10;;;2.90;;
9392;SDS011;4736;52.508;13.422;2022-07-29T10:07:44;6.27;;;3.13;;
9392;SDS011;4736;52.508;13.422;2022-07-29T10:11:01;7.57;;;3.10;;
9392;SDS011;4736;52.508;13.422;2022-07-29T10:14:13;3.43;;;2.83;;
9392;SDS011;4736;52.508;13.422;2022-07-29T10:17:17;4.80;;;2.70;;
9392;SDS011;4736;52.508;13.422;2022-07-29T10:20:21;4.30;;;2.60;;
9392;SDS011;4736;52.508;13.422;2022-07-29T10:23:26;4.80;;;2.83;;
9392;SDS011;4736;52.508;13.422;2022-07-29T10:26:46;3.07;;;2.83;;
9392;SDS011;4736;52.508;13.422;2022-07-29T10:29:51;3.73;;;3.17;;
9392;SDS011;4736;52.508;13.422;2022-07-29T10:33:05;2.80;;;2.70;;
9392;SDS011;4736;52.508;13.422;2022-07-29T10:36:19;5.43;;;3.00;;
9392;SDS011;4736;52.508;13.422;2022-07-29T10:39:32;3.00;;;2.80;;
9392;SDS011;4736;52.508;13.422;2022-07-29T10:42:50;3.33;;;2.50;;
9392;SDS011;4736;52.508;13.422;2022-07-29T10:45:57;4.40;;;3.53;;
9392;SDS011;4736;52.508;13.422;2022-07-29T10:49:09;5.40;;;3.40;;
9392;SDS011;4736;52.508;13.422;2022-07-29T10:52:16;3.60;;;3.30;;
9392;SDS011;4736;52.508;13.422;2022-07-29T10:55:30;5.73;;;2.80;;
9392;SDS011;4736;52.508;13.422;2022-07-29T10:58:36;9.60;;;3.07;;
9392;SDS011;4736;52.508;13.422;2022-07-29T11:01:42;8.60;;;3.50;;
9392;SDS011;4736;52.508;13.422;2022-07-29T11:04:59;3.20;;;2.90;;
9392;SDS011;4736;52.508;13.422;2022-07-29T11:08:17;2.93;;;2.73;;
9392;SDS011;4736;52.508;13.422;2022-07-29T11:11:32;5.33;;;2.80;;
9392;SDS011;4736;52.508;13.422;2022-07-29T11:14:56;3.97;;;2.80;;
9392;SDS011;4736;52.508;13.422;2022-07-29T11:18:08;3.63;;;3.53;;
9392;SDS011;4736;52.508;13.422;2022-07-29T11:25:12;3.27;;;2.93;;
9392;SDS011;4736;52.508;13.422;2022-07-29T11:28:17;3.83;;;2.80;;
9392;SDS011;4736;52.508;13.422;2022-07-29T11:31:32;3.93;;;3.40;;
9392;SDS011;4736;52.508;13.422;2022-07-29T11:34:41;3.77;;;3.67;;
9392;SDS011;4736;52.508;13.422;2022-07-29T11:37:45;3.23;;;3.13;;
9392;SDS011;4736;52.508;13.422;2022-07-29T11:47:56;6.20;;;3.90;;
9392;SDS011;4736;52.508;13.422;2022-07-29T11:51:21;3.33;;;3.17;;
9392;SDS011;4736;52.508;13.422;2022-07-29T11:54:33;6.83;;;3.70;;
9392;SDS011;4736;52.508;13.422;2022-07-29T11:57:58;3.37;;;3.17;;
9392;SDS011;4736;52.508;13.422;2022-07-29T12:01:04;3.63;;;3.33;;
9392;SDS011;4736;52.508;13.422;2022-07-29T12:04:07;4.97;;;3.10;;
9392;SDS011;4736;52.508;13.422;2022-07-29T12:07:12;3.17;;;2.93;;
9392;SDS011;4736;52.508;13.422;2022-07-29T12:10:16;5.40;;;3.30;;
9392;SDS011;4736;52.508;13.422;2022-07-29T12:13:29;3.97;;;3.20;;
9392;SDS011;4736;52.508;13.422;2022-07-29T12:16:41;4.10;;;3.50;;
9392;SDS011;4736;52.508;13.422;2022-07-29T12:19:44;4.13;;;3.83;;
9392;SDS011;4736;52.508;13.422;2022-07-29T12:22:52;3.30;;;3.20;;
9392;SDS011;4736;52.508;13.422;2022-07-29T12:25:55;4.20;;;3.80;;
9392;SDS011;4736;52.508;13.422;2022-07-29T12:29:00;4.43;;;4.10;;
9392;SDS011;4736;52.508;13.422;2022-07-29T12:32:11;4.43;;;3.50;;
9392;SDS011;4736;52.508;13.422;2022-07-29T12:35:20;3.80;;;3.60;;
9392;SDS011;4736;52.508;13.422;2022-07-29T12:38:24;3.67;;;3.53;;
9392;SDS011;4736;52.508;13.422;2022-07-29T12:41:28;4.30;;;4.00;;
9392;SDS011;4736;52.508;13.422;2022-07-29T12:44:44;5.27;;;3.33;;
9392;SDS011;4736;52.508;13.422;2022-07-29T12:47:51;5.23;;;3.90;;
9392;SDS011;4736;52.508;13.422;2022-07-29T12:50:55;5.10;;;3.53;;
9392;SDS011;4736;52.508;13.422;2022-07-29T12:54:04;6.70;;;3.70;;
9392;SDS011;4736;52.508;13.422;2022-07-29T12:57:08;4.53;;;4.13;;
9392;SDS011;4736;52.508;13.422;2022-07-29T13:00:21;5.27;;;3.80;;
9392;SDS011;4736;52.508;13.422;2022-07-29T13:03:26;3.40;;;3.30;;
9392;SDS011;4736;52.508;13.422;2022-07-29T13:06:36;4.03;;;3.73;;
9392;SDS011;4736;52.508;13.422;2022-07-29T13:09:43;4.80;;;3.35;;
9392;SDS011;4736;52.508;13.422;2022-07-29T13:13:03;3.92;;;3.60;;
9392;SDS011;4736;52.508;13.422;2022-07-29T13:16:07;5.63;;;3.60;;
9392;SDS011;4736;52.508;13.422;2022-07-29T13:19:11;4.27;;;3.57;;
9392;SDS011;4736;52.508;13.422;2022-07-29T13:22:15;3.80;;;3.67;;
9392;SDS011;4736;52.508;13.422;2022-07-29T13:25:25;3.92;;;3.60;;
9392;SDS011;4736;52.508;13.422;2022-07-29T13:28:28;3.77;;;3.57;;
9392;SDS011;4736;52.508;13.422;2022-07-29T13:31:31;4.33;;;3.20;;
9392;SDS011;4736;52.508;13.422;2022-07-29T13:34:34;3.85;;;3.65;;
9392;SDS011;4736;52.508;13.422;2022-07-29T13:37:37;3.53;;;3.35;;
9392;SDS011;4736;52.508;13.422;2022-07-29T13:40:41;4.13;;;3.60;;
9392;SDS011;4736;52.508;13.422;2022-07-29T13:43:44;4.07;;;3.60;;
9392;SDS011;4736;52.508;13.422;2022-07-29T13:46:50;3.63;;;3.22;;
9392;SDS011;4736;52.508;13.422;2022-07-29T13:49:53;3.97;;;3.60;;
9392;SDS011;4736;52.508;13.422;2022-07-29T13:52:56;4.03;;;3.72;;
9392;SDS011;4736;52.508;13.422;2022-07-29T13:56:01;4.15;;;3.95;;
9392;SDS011;4736;52.508;13.422;2022-07-29T13:59:04;7.13;;;4.10;;
9392;SDS011;4736;52.508;13.422;2022-07-29T14:02:07;4.30;;;4.00;;
9392;SDS011;4736;52.508;13.422;2022-07-29T14:05:11;3.83;;;3.60;;
9392;SDS011;4736;52.508;13.422;2022-07-29T14:08:14;4.13;;;3.75;;
9392;SDS011;4736;52.508;13.422;2022-07-29T14:11:18;4.00;;;3.80;;
9392;SDS011;4736;52.508;13.422;2022-07-29T14:14:21;4.03;;;3.70;;
9392;SDS011;4736;52.508;13.422;2022-07-29T14:17:24;3.60;;;3.40;;
9392;SDS011;4736;52.508;13.422;2022-07-29T14:20:27;5.95;;;4.05;;
9392;SDS011;4736;52.508;13.422;2022-07-29T14:23:30;3.53;;;3.20;;
9392;SDS011;4736;52.508;13.422;2022-07-29T14:26:35;5.55;;;3.92;;
9392;SDS011;4736;52.508;13.422;2022-07-29T14:29:38;10.75;;;3.60;;
9392;SDS011;4736;52.508;13.422;2022-07-29T14:32:41;3.97;;;3.78;;
9392;SDS011;4736;52.508;13.422;2022-07-29T14:35:44;4.53;;;3.95;;
9392;SDS011;4736;52.508;13.422;2022-07-29T14:38:48;3.85;;;3.65;;
9392;SDS011;4736;52.508;13.422;2022-07-29T14:41:52;4.07;;;3.88;;
9392;SDS011;4736;52.508;13.422;2022-07-29T14:44:55;12.02;;;3.78;;
9392;SDS011;4736;52.508;13.422;2022-07-29T14:47:58;8.20;;;3.75;;
9392;SDS011;4736;52.508;13.422;2022-07-29T14:51:02;4.65;;;4.30;;
9392;SDS011;4736;52.508;13.422;2022-07-29T14:54:05;3.88;;;3.65;;
9392;SDS011;4736;52.508;13.422;2022-07-29T14:57:09;4.00;;;3.50;;
9392;SDS011;4736;52.508;13.422;2022-07-29T15:00:13;4.82;;;3.30;;
9392;SDS011;4736;52.508;13.422;2022-07-29T15:03:16;3.63;;;3.33;;
9392;SDS011;4736;52.508;13.422;2022-07-29T15:06:24;3.83;;;3.50;;
9392;SDS011;4736;52.508;13.422;2022-07-29T15:09:27;4.75;;;4.00;;
9392;SDS011;4736;52.508;13.422;2022-07-29T15:12:32;3.95;;;3.63;;
9392;SDS011;4736;52.508;13.422;2022-07-29T15:15:35;5.18;;;3.80;;
9392;SDS011;4736;52.508;13.422;2022-07-29T15:18:38;6.93;;;3.67;;
9392;SDS011;4736;52.508;13.422;2022-07-29T15:21:41;4.65;;;3.55;;
9392;SDS011;4736;52.508;13.422;2022-07-29T15:24:49;3.67;;;3.47;;
9392;SDS011;4736;52.508;13.422;2022-07-29T15:27:53;4.15;;;3.88;;
9392;SDS011;4736;52.508;13.422;2022-07-29T15:31:01;4.10;;;3.80;;
9392;SDS011;4736;52.508;13.422;2022-07-29T15:34:04;4.40;;;3.70;;
9392;SDS011;4736;52.508;13.422;2022-07-29T15:37:07;3.85;;;3.55;;
9392;SDS011;4736;52.508;13.422;2022-07-29T15:40:12;5.15;;;4.00;;
9392;SDS011;4736;52.508;13.422;2022-07-29T15:43:16;3.40;;;3.20;;
9392;SDS011;4736;52.508;13.422;2022-07-29T15:46:19;3.90;;;3.80;;
9392;SDS011;4736;52.508;13.422;2022-07-29T15:49:40;5.28;;;3.88;;
9392;SDS011;4736;52.508;13.422;2022-07-29T15:52:49;4.05;;;3.33;;
9392;SDS011;4736;52.508;13.422;2022-07-29T15:55:52;5.28;;;3.60;;
9392;SDS011;4736;52.508;13.422;2022-07-29T15:58:56;4.00;;;3.35;;
9392;SDS011;4736;52.508;13.422;2022-07-29T16:02:01;4.28;;;3.53;;
9392;SDS011;4736;52.508;13.422;2022-07-29T16:05:04;4.00;;;3.10;;
9392;SDS011;4736;52.508;13.422;2022-07-29T16:08:09;3.30;;;3.00;;
9392;SDS011;4736;52.508;13.422;2022-07-29T16:11:12;3.03;;;2.83;;
9392;SDS011;4736;52.508;13.422;2022-07-29T16:14:17;4.38;;;3.47;;
9392;SDS011;4736;52.508;13.422;2022-07-29T16:17:21;3.45;;;3.15;;
9392;SDS011;4736;52.508;13.422;2022-07-29T16:20:23;3.85;;;3.53;;
9392;SDS011;4736;52.508;13.422;2022-07-29T16:23:27;4.13;;;3.58;;
9392;SDS011;4736;52.508;13.422;2022-07-29T16:26:30;4.90;;;3.75;;
9392;SDS011;4736;52.508;13.422;2022-07-29T16:29:35;4.55;;;3.17;;
9392;SDS011;4736;52.508;13.422;2022-07-29T16:32:38;4.53;;;3.30;;
9392;SDS011;4736;52.508;13.422;2022-07-29T16:35:41;3.70;;;3.50;;
9392;SDS011;4736;52.508;13.422;2022-07-29T16:38:44;7.33;;;3.50;;
9392;SDS011;4736;52.508;13.422;2022-07-29T16:41:47;4.70;;;4.03;;
9392;SDS011;4736;52.508;13.422;2022-07-29T16:44:52;3.90;;;3.80;;
9392;SDS011;4736;52.508;13.422;2022-07-29T16:47:55;3.93;;;3.73;;
9392;SDS011;4736;52.508;13.422;2022-07-29T16:51:01;3.77;;;3.57;;
9392;SDS011;4736;52.508;13.422;2022-07-29T16:54:04;3.53;;;3.30;;
9392;SDS011;4736;52.508;13.422;2022-07-29T16:57:08;7.03;;;3.87;;
9392;SDS011;4736;52.508;13.422;2022-07-29T17:00:14;4.50;;;4.10;;
9392;SDS011;4736;52.508;13.422;2022-07-29T17:03:18;5.37;;;4.87;;
9392;SDS011;4736;52.508;13.422;2022-07-29T17:06:21;4.27;;;3.87;;
9392;SDS011;4736;52.508;13.422;2022-07-29T17:09:24;5.43;;;4.00;;
9392;SDS011;4736;52.508;13.422;2022-07-29T17:12:27;4.93;;;3.63;;
9392;SDS011;4736;52.508;13.422;2022-07-29T17:15:31;7.70;;;4.00;;
9392;SDS011;4736;52.508;13.422;2022-07-29T17:18:36;3.27;;;3.17;;
9392;SDS011;4736;52.508;13.422;2022-07-29T17:21:39;4.17;;;3.70;;
9392;SDS011;4736;52.508;13.422;2022-07-29T17:24:49;3.80;;;3.60;;
9392;SDS011;4736;52.508;13.422;2022-07-29T17:27:52;3.83;;;3.63;;
9392;SDS011;4736;52.508;13.422;2022-07-29T17:31:02;3.73;;;3.43;;
9392;SDS011;4736;52.508;13.422;2022-07-29T17:34:05;3.90;;;3.60;;
9392;SDS011;4736;52.508;13.422;2022-07-29T17:37:09;3.03;;;2.93;;
9392;SDS011;4736;52.508;13.422;2022-07-29T17:40:13;3.77;;;3.47;;
9392;SDS011;4736;52.508;13.422;2022-07-29T17:43:16;3.60;;;3.43;;
9392;SDS011;4736;52.508;13.422;2022-07-29T17:46:21;5.60;;;3.57;;
9392;SDS011;4736;52.508;13.422;2022-07-29T17:49:24;4.00;;;3.63;;
9392;SDS011;4736;52.508;13.422;2022-07-29T17:52:28;3.53;;;3.30;;
9392;SDS011;4736;52.508;13.422;2022-07-29T17:55:31;8.83;;;3.73;;
9392;SDS011;4736;52.508;13.422;2022-07-29T17:58:34;3.10;;;2.90;;
9392;SDS011;4736;52.508;13.422;2022-07-29T18:01:38;2.83;;;2.73;;
9392;SDS011;4736;52.508;13.422;2022-07-29T18:04:42;4.70;;;3.80;;
9392;SDS011;4736;52.508;13.422;2022-07-29T18:07:50;3.53;;;3.23;;
9392;SDS011;4736;52.508;13.422;2022-07-29T18:10:55;3.87;;;3.50;;
9392;SDS011;4736;52.508;13.422;2022-07-29T18:13:58;4.87;;;3.20;;
9392;SDS011;4736;52.508;13.422;2022-07-29T18:17:04;4.77;;;3.27;;
9392;SDS011;4736;52.508;13.422;2022-07-29T18:20:07;4.53;;;3.37;;
9392;SDS011;4736;52.508;13.422;2022-07-29T18:23:11;3.50;;;3.30;;
9392;SDS011;4736;52.508;13.422;2022-07-29T18:26:14;4.67;;;3.47;;
9392;SDS011;4736;52.508;13.422;2022-07-29T18:29:17;7.00;;;2.97;;
9392;SDS011;4736;52.508;13.422;2022-07-29T18:32:21;4.73;;;3.30;;
9392;SDS011;4736;52.508;13.422;2022-07-29T18:35:30;4.07;;;3.57;;
9392;SDS011;4736;52.508;13.422;2022-07-29T18:38:33;2.87;;;2.70;;
9392;SDS011;4736;52.508;13.422;2022-07-29T18:41:36;3.23;;;2.77;;
9392;SDS011;4736;52.508;13.422;2022-07-29T18:44:50;3.50;;;3.30;;
9392;SDS011;4736;52.508;13.422;2022-07-29T18:47:56;6.50;;;3.70;;
9392;SDS011;4736;52.508;13.422;2022-07-29T18:50:59;4.63;;;3.57;;
9392;SDS011;4736;52.508;13.422;2022-07-29T18:54:09;3.50;;;3.30;;
9392;SDS011;4736;52.508;13.422;2022-07-29T18:57:12;3.63;;;3.33;;
9392;SDS011;4736;52.508;13.422;2022-07-29T19:00:35;2.97;;;2.83;;
9392;SDS011;4736;52.508;13.422;2022-07-29T19:03:40;3.33;;;3.03;;
9392;SDS011;4736;52.508;13.422;2022-07-29T19:06:42;4.53;;;3.10;;